Time;durP1;ratioP1;P1;durP2;ratioP2;P2;SDS_P1;SDS_P2;PMS_P1;PMS_P2;Temp;Humidity;BMP_temperature;BMP_pressure;BME280_temperature;BME280_humidity;BME280_pressure;Samples;Min_cycle;Max_cycle;Signal;HPM_P1;HPM_P2
2022/04/02 00:00:16;;;;;;;6.80;3.53;;;;;;;1.43;69.00;101459.63;5028136;28;20427;-79
2022/04/02 00:02:43;;;;;;;4.82;3.63;;;;;;;1.42;68.79;101456.16;5031200;28;20040;-79
2022/04/02 00:05:09;;;;;;;5.65;3.42;;;;;;;1.41;69.58;101457.06;5039450;28;20048;-79
2022/04/02 00:07:35;;;;;;;5.95;3.67;;;;;;;1.41;69.05;101457.06;5040922;28;20025;-80
2022/04/02 00:10:05;;;;;;;8.98;3.47;;;;;;;1.43;68.97;101459.63;5037172;28;20025;-79
2022/04/02 00:12:31;;;;;;;8.00;3.42;;;;;;;1.40;68.59;101454.50;5064080;28;20029;-79
2022/04/02 00:14:57;;;;;;;7.15;3.72;;;;;;;1.41;68.73;101454.47;5036399;28;20035;-79
2022/04/02 00:17:22;;;;;;;4.88;3.40;;;;;;;1.44;69.16;101456.97;5036703;28;20026;-79
2022/04/02 00:19:48;;;;;;;7.07;3.63;;;;;;;1.43;68.94;101455.28;5053691;28;20545;-79
2022/04/02 00:22:13;;;;;;;5.55;3.45;;;;;;;1.44;68.98;101464.75;5038249;28;20075;-79
2022/04/02 00:24:39;;;;;;;6.03;3.40;;;;;;;1.43;68.00;101465.66;5039470;28;20507;-80
2022/04/02 00:27:04;;;;;;;8.13;3.80;;;;;;;1.44;68.90;101467.34;5036679;28;20036;-78
2022/04/02 00:29:34;;;;;;;6.45;3.65;;;;;;;1.45;69.04;101457.81;5037793;28;20048;-79
2022/04/02 00:31:59;;;;;;;5.25;3.38;;;;;;;1.45;68.21;101460.44;5039576;28;20017;-79
2022/04/02 00:34:25;;;;;;;5.75;3.63;;;;;;;1.45;68.75;101457.81;5037405;28;20052;-79
2022/04/02 00:36:50;;;;;;;4.90;3.47;;;;;;;1.46;68.80;101456.94;5039966;28;20477;-78
2022/04/02 00:39:15;;;;;;;8.00;3.47;;;;;;;1.46;68.50;101454.34;5037867;28;20477;-79
2022/04/02 00:41:41;;;;;;;6.10;3.20;;;;;;;1.45;68.38;101452.66;5039057;28;20174;-79
2022/04/02 00:44:17;;;;;;;4.65;3.10;;;;;;;1.45;68.80;101452.66;5033719;28;20025;-79
2022/04/02 00:46:44;;;;;;;5.70;3.45;;;;;;;1.44;68.27;101456.97;5035673;28;20468;-79
2022/04/02 00:49:11;;;;;;;5.50;3.38;;;;;;;1.44;68.88;101451.78;5041822;28;20477;-79
2022/04/02 00:51:41;;;;;;;5.75;3.53;;;;;;;1.46;68.54;101462.13;5040075;28;20023;-79
2022/04/02 00:54:09;;;;;;;9.25;3.60;;;;;;;1.43;69.09;101455.28;5037707;28;20108;-79
2022/04/02 00:56:37;;;;;;;7.13;3.63;;;;;;;1.45;68.78;101460.44;5034830;28;20028;-80
2022/04/02 00:59:03;;;;;;;4.90;3.38;;;;;;;1.44;69.16;101456.13;5036693;28;20473;-79
2022/04/02 01:01:28;;;;;;;5.82;3.30;;;;;;;1.44;68.47;101450.94;5038986;28;20043;-79
2022/04/02 01:03:53;;;;;;;8.77;3.60;;;;;;;1.43;68.82;101462.22;5041428;28;20096;-79
2022/04/02 01:06:19;;;;;;;5.55;3.58;;;;;;;1.41;69.00;101457.06;5038374;28;20087;-79
2022/04/02 01:08:46;;;;;;;8.95;3.65;;;;;;;1.40;68.93;101459.69;5020558;28;20022;-79
2022/04/02 01:11:11;;;;;;;7.93;3.40;;;;;;;1.40;69.13;101452.78;5039180;28;20024;-79
2022/04/02 01:13:37;;;;;;;6.10;3.20;;;;;;;1.40;69.71;101454.50;5039533;28;20509;-79
2022/04/02 01:16:03;;;;;;;5.45;3.30;;;;;;;1.40;68.37;101457.94;5037800;28;20103;-79
2022/04/02 01:18:28;;;;;;;4.95;3.10;;;;;;;1.39;68.33;101455.41;5037158;28;20032;-80
2022/04/02 01:20:54;;;;;;;5.05;2.95;;;;;;;1.40;68.45;101459.69;5060922;28;20079;-81
2022/04/02 01:23:19;;;;;;;5.78;3.42;;;;;;;1.39;68.48;101463.19;5029438;28;20059;-81
2022/04/02 01:25:45;;;;;;;5.00;3.25;;;;;;;1.37;68.71;101463.22;5029016;28;20025;-81
2022/04/02 01:28:10;;;;;;;5.60;3.60;;;;;;;1.37;68.38;101458.03;5061208;28;20033;-80
2022/04/02 01:30:35;;;;;;;7.05;3.20;;;;;;;1.37;68.92;101459.78;5028612;28;20125;-81
2022/04/02 01:33:04;;;;;;;6.90;3.33;;;;;;;1.37;67.90;101460.63;5027058;28;20079;-79
2022/04/02 01:35:29;;;;;;;6.53;3.33;;;;;;;1.37;68.64;101457.19;5016694;28;20068;-79
2022/04/02 01:37:55;;;;;;;6.20;3.53;;;;;;;1.36;67.50;101458.94;5029667;28;20026;-79
2022/04/02 01:40:21;;;;;;;6.75;3.30;;;;;;;1.35;68.10;101452.03;5028980;28;20095;-79
2022/04/02 01:42:49;;;;;;;5.10;3.22;;;;;;;1.34;67.49;101449.50;5027708;28;20057;-79
2022/04/02 01:45:15;;;;;;;7.68;3.38;;;;;;;1.34;67.97;101452.09;5024060;28;20500;-79
2022/04/02 01:47:41;;;;;;;6.55;3.30;;;;;;;1.34;68.34;101452.09;5017419;28;20068;-79
2022/04/02 01:50:08;;;;;;;4.90;3.30;;;;;;;1.35;68.09;101456.38;5029742;28;20705;-79
2022/04/02 01:52:33;;;;;;;6.55;3.53;;;;;;;1.34;67.51;101460.72;5034706;28;20086;-78
2022/04/02 01:54:59;;;;;;;5.43;3.38;;;;;;;1.33;68.51;101463.34;5029795;28;20029;-78
2022/04/02 01:57:24;;;;;;;4.85;3.13;;;;;;;1.31;67.62;101458.19;5034341;28;20033;-81
2022/04/02 01:59:50;;;;;;;5.63;3.38;;;;;;;1.31;68.44;101462.53;5029388;28;20471;-81
2022/04/02 02:02:16;;;;;;;17.77;5.45;;;;;;;1.29;67.92;101461.72;5030051;28;20021;-80
2022/04/02 02:04:42;;;;;;;6.25;3.33;;;;;;;1.31;68.14;101467.72;5041865;28;20389;-80
2022/04/02 02:07:08;;;;;;;4.97;3.65;;;;;;;1.29;68.35;101472.09;5028523;28;20025;-81
2022/04/02 02:09:34;;;;;;;8.07;3.28;;;;;;;1.28;68.45;101472.97;5047498;28;20653;-81
2022/04/02 02:12:00;;;;;;;4.93;3.45;;;;;;;1.27;68.27;101473.88;5027304;28;20021;-81
2022/04/02 02:14:26;;;;;;;5.28;3.45;;;;;;;1.26;68.84;101478.22;5057388;28;20041;-81
2022/04/02 02:16:52;;;;;;;5.50;3.22;;;;;;;1.23;68.40;101468.78;5036222;28;20021;-81
2022/04/02 02:19:17;;;;;;;5.57;3.40;;;;;;;1.23;68.91;101468.78;5028265;28;20474;-81
2022/04/02 02:21:43;;;;;;;7.68;3.38;;;;;;;1.23;68.50;101473.94;5030246;28;20517;-81
2022/04/02 02:24:08;;;;;;;5.70;3.40;;;;;;;1.22;68.26;101468.81;5032232;28;20508;-81
2022/04/02 02:26:34;;;;;;;6.25;3.60;;;;;;;1.19;67.84;101477.47;5030732;28;20024;-81
2022/04/02 02:29:06;;;;;;;5.20;3.40;;;;;;;1.18;68.49;101470.59;5028988;28;20049;-81
2022/04/02 02:31:33;;;;;;;7.93;3.83;;;;;;;1.17;67.74;101484.44;5028851;28;20021;-81
2022/04/02 02:36:42;;;;;;;6.50;3.40;;;;;;;1.14;68.56;101479.34;5027760;28;20132;-81
2022/04/02 02:39:07;;;;;;;5.57;3.30;;;;;;;1.13;67.81;101479.38;5065828;28;20034;-81
2022/04/02 02:41:34;;;;;;;7.18;3.50;;;;;;;1.13;68.82;101487.16;5035204;28;20021;-81
2022/04/02 02:43:59;;;;;;;6.65;3.47;;;;;;;1.12;68.12;101486.31;5027750;28;20218;-81
2022/04/02 02:46:24;;;;;;;5.47;3.17;;;;;;;1.10;68.67;101482.91;5028064;28;20100;-81
2022/04/02 02:48:50;;;;;;;5.65;3.10;;;;;;;1.11;68.82;101489.78;5026787;28;20114;-81
2022/04/02 02:51:16;;;;;;;5.53;3.28;;;;;;;1.10;68.33;101490.69;5035048;28;20024;-81
2022/04/02 02:53:44;;;;;;;5.05;3.15;;;;;;;1.11;68.69;101489.78;5034901;28;20079;-81
2022/04/02 02:56:09;;;;;;;4.78;3.25;;;;;;;1.08;68.84;101489.00;5034530;28;20017;-81
2022/04/02 02:58:34;;;;;;;6.28;3.33;;;;;;;1.08;68.38;101484.69;5043536;28;20017;-81
2022/04/02 03:01:04;;;;;;;7.43;3.70;;;;;;;1.08;68.89;101495.03;5026987;28;20112;-82
2022/04/02 03:03:33;;;;;;;6.63;3.28;;;;;;;1.06;68.03;101496.81;5038799;28;20036;-81
2022/04/02 03:05:59;;;;;;;5.68;3.17;;;;;;;1.07;68.65;101503.72;5062512;28;20393;-81
2022/04/02 03:08:25;;;;;;;4.72;3.05;;;;;;;1.04;67.98;101501.19;5028775;28;20104;-81
2022/04/02 03:10:50;;;;;;;5.55;3.20;;;;;;;1.05;67.37;101496.88;5027742;28;20037;-81
2022/04/02 03:13:16;;;;;;;6.75;3.10;;;;;;;1.03;68.07;101502.09;5045366;28;20041;-81
2022/04/02 03:15:42;;;;;;;6.40;3.05;;;;;;;1.01;68.21;101498.69;5039418;28;20128;-81
2022/04/02 03:18:08;;;;;;;6.85;3.38;;;;;;;1.00;68.14;101498.72;5028220;28;20017;-81
2022/04/02 03:20:35;;;;;;;7.13;3.03;;;;;;;0.99;68.18;101505.63;5034101;28;20096;-81
2022/04/02 03:23:02;;;;;;;5.80;3.20;;;;;;;1.01;67.69;101500.41;5050826;28;20021;-81
2022/04/02 03:25:27;;;;;;;6.93;3.22;;;;;;;0.99;68.13;101497.88;5037568;28;20025;-81
2022/04/02 03:27:53;;;;;;;6.97;3.10;;;;;;;0.97;68.26;101502.22;5038156;28;20304;-81
2022/04/02 03:30:21;;;;;;;4.50;3.20;;;;;;;0.96;68.16;101505.72;5031889;28;20396;-82
2022/04/02 03:32:48;;;;;;;6.10;3.03;;;;;;;0.98;68.52;101503.94;5031214;28;20045;-81
2022/04/02 03:35:14;;;;;;;6.18;3.20;;;;;;;0.96;68.39;101495.34;5031601;28;20101;-81
2022/04/02 03:37:44;;;;;;;4.93;3.00;;;;;;;0.95;69.09;101498.84;5036485;28;20056;-81
2022/04/02 03:40:17;;;;;;;4.57;3.20;;;;;;;0.95;68.62;101493.66;5035711;28;20029;-81
2022/04/02 03:42:44;;;;;;;6.07;3.58;;;;;;;0.93;69.13;101500.59;5029191;28;20065;-79
2022/04/02 03:45:13;;;;;;;3.90;3.20;;;;;;;0.91;69.16;101494.63;5031206;28;20021;-79
2022/04/02 03:47:39;;;;;;;6.82;3.47;;;;;;;0.90;69.39;101496.34;5029974;28;20021;-79
2022/04/02 03:50:05;;;;;;;6.13;3.20;;;;;;;0.88;69.19;101500.72;5034603;28;20090;-79
2022/04/02 03:52:31;;;;;;;6.25;3.42;;;;;;;0.87;69.75;101506.78;5036261;28;20033;-79
2022/04/02 03:54:58;;;;;;;7.32;3.53;;;;;;;0.86;69.45;101512.00;5028950;28;20029;-79
2022/04/02 03:57:23;;;;;;;5.93;3.10;;;;;;;0.83;68.88;101515.53;5030786;28;20025;-79
2022/04/02 03:59:49;;;;;;;6.22;3.53;;;;;;;0.83;68.83;101520.69;5035178;28;20524;-79
2022/04/02 04:02:14;;;;;;;4.00;3.08;;;;;;;0.81;68.74;101516.44;5034646;28;20571;-79
2022/04/02 04:04:40;;;;;;;5.20;3.20;;;;;;;0.80;68.29;101520.78;5034362;28;20041;-79
2022/04/02 04:07:07;;;;;;;7.90;3.33;;;;;;;0.79;69.28;101518.19;5030034;28;20567;-79
2022/04/02 04:09:37;;;;;;;5.13;2.90;;;;;;;0.78;68.43;101524.25;5023631;28;20100;-79
2022/04/02 04:12:03;;;;;;;7.07;3.35;;;;;;;0.78;68.81;101529.44;5039155;28;20024;-81
2022/04/02 04:14:29;;;;;;;4.82;3.33;;;;;;;0.77;69.50;101525.13;5035368;28;20159;-79
2022/04/02 04:16:55;;;;;;;4.47;3.45;;;;;;;0.76;68.28;101529.47;5030135;28;20097;-79
2022/04/02 04:19:21;;;;;;;6.22;3.13;;;;;;;0.73;68.52;101532.13;5030390;28;20594;-79
2022/04/02 04:21:47;;;;;;;5.32;3.58;;;;;;;0.74;68.53;101527.81;5033916;28;20074;-79
2022/04/02 04:24:14;;;;;;;5.10;3.20;;;;;;;0.73;68.70;101539.03;5043928;28;20029;-79
2022/04/02 04:26:40;;;;;;;4.50;3.28;;;;;;;0.73;69.27;101536.47;5032859;28;20048;-79
2022/04/02 04:29:06;;;;;;;8.57;3.70;;;;;;;0.73;69.55;101539.03;5029080;28;20030;-79
2022/04/02 04:31:34;;;;;;;5.53;3.33;;;;;;;0.73;69.00;101539.91;5026606;28;20373;-79
2022/04/02 04:34:03;;;;;;;4.80;3.28;;;;;;;0.72;69.19;101527.84;5031903;28;20600;-78
2022/04/02 04:36:29;;;;;;;5.00;2.85;;;;;;;0.74;69.51;101538.16;5044287;28;20087;-79
2022/04/02 04:38:56;;;;;;;5.20;3.20;;;;;;;0.73;69.35;101536.47;5059720;28;20017;-79
2022/04/02 04:41:22;;;;;;;4.85;3.22;;;;;;;0.71;69.92;101541.66;5045291;28;20037;-79
2022/04/02 04:43:49;;;;;;;7.00;3.38;;;;;;;0.71;69.71;101541.66;5029990;28;20107;-81
2022/04/02 04:46:16;;;;;;;8.35;3.70;;;;;;;0.71;69.77;101540.81;5035391;28;20420;-79
2022/04/02 04:48:42;;;;;;;6.75;3.53;;;;;;;0.69;70.04;101550.38;5037569;28;20136;-79
2022/04/02 04:51:09;;;;;;;6.22;3.53;;;;;;;0.69;69.83;101552.94;5034575;28;20521;-79
2022/04/02 04:53:35;;;;;;;5.03;3.25;;;;;;;0.68;69.60;101562.47;5039679;28;20029;-79
2022/04/02 04:56:08;;;;;;;5.90;3.53;;;;;;;0.69;69.28;101568.50;5047969;28;20067;-79
2022/04/02 04:58:34;;;;;;;4.68;3.10;;;;;;;0.67;69.67;101565.09;5049505;28;20117;-79
2022/04/02 05:00:59;;;;;;;5.78;3.30;;;;;;;0.67;70.11;101570.25;5027343;28;20495;-79
2022/04/02 05:03:26;;;;;;;6.45;3.25;;;;;;;0.66;69.88;101569.41;5024897;28;20033;-79
2022/04/02 05:05:56;;;;;;;5.95;3.47;;;;;;;0.66;68.90;101574.59;5028046;28;20029;-79
2022/04/02 05:08:25;;;;;;;4.03;3.00;;;;;;;0.67;69.13;101576.28;5030275;28;20033;-79
2022/04/02 05:10:51;;;;;;;6.57;3.28;;;;;;;0.66;69.23;101584.94;5031807;28;20075;-79
2022/04/02 05:13:17;;;;;;;8.27;3.20;;;;;;;0.67;68.74;101575.44;5029021;28;20036;-79
2022/04/02 05:15:44;;;;;;;4.10;2.92;;;;;;;0.67;69.53;101580.63;5028018;28;20021;-81
2022/04/02 05:18:10;;;;;;;4.22;3.15;;;;;;;0.66;68.37;101586.69;5019913;28;20021;-81
2022/04/02 05:20:38;;;;;;;5.97;3.20;;;;;;;0.66;68.39;101584.94;5034550;28;20040;-81
2022/04/02 05:23:05;;;;;;;5.28;2.85;;;;;;;0.67;67.88;101585.78;5030066;28;20032;-79
2022/04/02 05:25:33;;;;;;;4.10;2.75;;;;;;;0.66;67.73;101590.13;5028631;28;20029;-78
2022/04/02 05:27:59;;;;;;;5.07;2.80;;;;;;;0.66;68.45;101592.72;5027050;28;20039;-78
2022/04/02 05:30:26;;;;;;;6.93;3.00;;;;;;;0.67;68.21;101603.94;5021608;28;20129;-81
2022/04/02 05:32:52;;;;;;;6.57;3.20;;;;;;;0.66;68.43;101604.81;5045391;28;20017;-81
2022/04/02 05:35:17;;;;;;;5.60;3.08;;;;;;;0.67;68.27;101614.28;5030986;28;20037;-81
2022/04/02 05:37:45;;;;;;;5.57;3.45;;;;;;;0.66;68.62;101612.56;5018919;28;20448;-81
2022/04/02 05:40:10;;;;;;;7.55;3.38;;;;;;;0.69;68.29;101612.50;5010241;28;20547;-81
2022/04/02 05:42:39;;;;;;;7.65;3.58;;;;;;;0.68;68.51;101621.16;5025789;28;20108;-81
2022/04/02 05:45:05;;;;;;;8.93;3.10;;;;;;;0.69;68.25;101622.88;5060574;28;20476;-81
2022/04/02 05:48:03;;;;;;;5.70;3.10;;;;;;;0.74;68.75;101628.81;5028039;28;20029;-81
2022/04/02 05:50:28;;;;;;;4.90;3.03;;;;;;;0.70;68.96;101632.34;5019125;28;20037;-81
2022/04/02 05:52:55;;;;;;;5.75;2.83;;;;;;;0.70;68.59;101633.19;5026986;28;20029;-82
2022/04/02 05:55:20;;;;;;;5.80;3.00;;;;;;;0.71;68.82;101634.06;5045050;28;20751;-81
2022/04/02 05:57:46;;;;;;;5.40;3.20;;;;;;;0.73;68.90;101640.03;5049852;28;20037;-81
2022/04/02 06:00:15;;;;;;;4.93;2.95;;;;;;;0.72;69.04;101636.59;5029239;28;20458;-81
2022/04/02 06:02:41;;;;;;;5.13;3.15;;;;;;;0.73;68.92;101642.63;5034472;28;20469;-81
2022/04/02 06:05:08;;;;;;;4.28;2.97;;;;;;;0.74;68.66;101650.38;5029253;28;20092;-80
2022/04/02 06:07:42;;;;;;;6.45;3.30;;;;;;;0.75;69.40;101646.03;5026946;28;20033;-81
2022/04/02 06:10:09;;;;;;;4.93;3.38;;;;;;;0.75;69.88;101651.22;5027019;28;20070;-80
2022/04/02 06:12:35;;;;;;;4.20;3.15;;;;;;;0.78;69.35;101656.34;5011328;28;20026;-81
2022/04/02 06:15:01;;;;;;;6.30;3.38;;;;;;;0.79;69.40;101652.88;5028124;28;20056;-81
2022/04/02 06:17:27;;;;;;;6.13;3.17;;;;;;;0.79;69.43;101658.03;5028914;28;20057;-80
2022/04/02 06:19:52;;;;;;;5.97;3.65;;;;;;;0.81;69.84;101651.13;5028356;28;20452;-81
2022/04/02 06:22:18;;;;;;;8.23;3.63;;;;;;;0.83;69.92;101657.13;5026603;28;20116;-81
2022/04/02 06:24:44;;;;;;;6.43;3.42;;;;;;;0.86;69.59;101664.84;5043606;28;20108;-81
2022/04/02 06:27:09;;;;;;;5.10;3.25;;;;;;;0.87;69.33;101664.81;5028594;28;20109;-81
2022/04/02 06:29:34;;;;;;;6.82;3.17;;;;;;;0.89;69.83;101670.81;5011633;28;20525;-81
2022/04/02 06:32:00;;;;;;;8.27;3.53;;;;;;;0.91;69.69;101679.38;5026604;28;20025;-81
2022/04/02 06:34:25;;;;;;;7.93;3.47;;;;;;;0.95;69.96;101675.00;5026791;28;20091;-81
2022/04/02 06:36:50;;;;;;;5.05;3.25;;;;;;;0.96;69.74;101679.28;5026677;28;20103;-81
2022/04/02 06:39:16;;;;;;;6.60;3.45;;;;;;;0.97;69.67;101681.00;5014227;28;20030;-81
2022/04/02 06:41:41;;;;;;;5.43;3.40;;;;;;;0.99;70.18;101684.41;5024338;28;20021;-81
2022/04/02 06:44:08;;;;;;;6.65;3.67;;;;;;;1.01;69.86;101686.97;5028133;28;20025;-79
2022/04/02 06:46:40;;;;;;;5.20;3.28;;;;;;;1.03;69.82;101688.63;5028592;28;20422;-79
2022/04/02 06:49:06;;;;;;;5.50;3.33;;;;;;;1.05;70.04;101698.97;5027945;28;20021;-80
2022/04/02 06:51:33;;;;;;;8.25;3.28;;;;;;;1.06;69.80;101698.94;5033914;28;20318;-79
2022/04/02 06:53:58;;;;;;;6.10;3.53;;;;;;;1.10;70.08;101700.56;5042610;28;20029;-79
2022/04/02 06:56:24;;;;;;;7.57;3.40;;;;;;;1.12;70.69;101703.97;5030744;28;20071;-80
2022/04/02 06:58:49;;;;;;;6.22;3.58;;;;;;;1.14;69.61;101703.94;5042591;28;20017;-79
2022/04/02 07:01:14;;;;;;;5.78;3.78;;;;;;;1.17;69.12;101707.31;5031194;28;20036;-79
2022/04/02 07:03:40;;;;;;;7.75;3.58;;;;;;;1.19;69.12;101712.47;5030503;28;20499;-79
2022/04/02 07:06:05;;;;;;;4.85;3.47;;;;;;;1.23;69.29;101715.00;5032371;28;20025;-80
2022/04/02 07:08:31;;;;;;;6.38;3.53;;;;;;;1.25;69.05;101718.41;5032640;28;20025;-79
2022/04/02 07:10:57;;;;;;;7.55;3.70;;;;;;;1.28;69.09;101714.03;5031862;28;20567;-79
2022/04/02 07:13:24;;;;;;;5.65;3.55;;;;;;;1.31;68.09;101729.53;5014541;28;20429;-79
2022/04/02 07:15:49;;;;;;;9.00;3.78;;;;;;;1.35;69.07;101725.97;4998283;28;20473;-77
2022/04/02 07:18:15;;;;;;;7.10;3.50;;;;;;;1.38;68.98;101731.09;5018047;28;20033;-77
2022/04/02 07:20:40;;;;;;;7.90;3.65;;;;;;;1.42;68.57;101733.59;5038665;28;20036;-77
2022/04/02 07:23:09;;;;;;;5.90;3.72;;;;;;;1.46;68.85;101731.78;5063665;28;20029;-78
2022/04/02 07:25:39;;;;;;;6.75;3.70;;;;;;;1.49;70.15;101735.16;5030105;28;20053;-77
2022/04/02 07:28:06;;;;;;;8.25;3.80;;;;;;;1.52;68.74;101739.41;5030243;28;20021;-79
2022/04/02 07:30:33;;;;;;;6.15;3.53;;;;;;;1.57;69.33;101737.56;5031384;28;20037;-79
2022/04/02 07:32:59;;;;;;;11.18;4.00;;;;;;;1.62;69.13;101735.75;5030086;28;20029;-79
2022/04/02 07:35:25;;;;;;;7.38;4.00;;;;;;;1.68;69.34;101751.16;5030240;28;20542;-79
2022/04/02 07:38:02;;;;;;;7.85;3.90;;;;;;;1.72;68.91;101746.75;5026763;28;20018;-80
2022/04/02 07:40:47;;;;;;;6.93;3.92;;;;;;;1.78;68.73;101755.25;5023400;28;20025;-80
2022/04/02 07:43:46;;;;;;;5.30;3.75;;;;;;;1.84;68.22;101756.84;5029542;28;20490;-80
2022/04/02 07:46:19;;;;;;;5.03;3.65;;;;;;;1.89;68.48;101761.03;5016350;28;20029;-79
2022/04/02 07:48:47;;;;;;;6.75;3.97;;;;;;;1.95;67.42;101761.78;5029612;28;20478;-80
2022/04/02 07:51:15;;;;;;;7.10;4.28;;;;;;;1.99;66.95;101761.66;5029290;28;20060;-80
2022/04/02 07:53:46;;;;;;;6.55;3.80;;;;;;;2.07;67.35;101761.50;5028438;28;20040;-80
2022/04/02 07:56:22;;;;;;;6.75;3.95;;;;;;;2.16;67.58;101771.66;5028796;28;20143;-79
2022/04/02 07:58:52;;;;;;;5.35;3.42;;;;;;;2.24;66.44;101771.47;5023051;28;20095;-79
2022/04/02 08:01:19;;;;;;;8.57;4.20;;;;;;;2.30;66.46;101771.31;5025359;28;20116;-80
2022/04/02 08:03:46;;;;;;;5.15;3.72;;;;;;;2.37;66.43;101768.53;5041449;28;20029;-80
2022/04/02 08:06:14;;;;;;;6.15;3.72;;;;;;;2.42;66.51;101761.50;5028886;28;20036;-81
2022/04/02 08:08:40;;;;;;;6.32;4.10;;;;;;;2.49;66.48;101777.78;5031292;28;20024;-80
2022/04/02 08:11:08;;;;;;;8.00;3.92;;;;;;;2.56;66.37;101768.91;5029788;28;20029;-80
2022/04/02 08:13:34;;;;;;;7.30;4.22;;;;;;;2.65;66.28;101771.28;5025791;28;20064;-79
2022/04/02 08:16:01;;;;;;;7.20;4.30;;;;;;;2.69;65.79;101767.69;5031206;28;20116;-79
2022/04/02 08:18:26;;;;;;;7.28;4.25;;;;;;;2.74;65.33;101771.03;5030461;28;20075;-80
2022/04/02 08:20:54;;;;;;;7.53;4.28;;;;;;;2.79;65.37;101770.91;5015221;28;20397;-79
2022/04/02 08:23:19;;;;;;;8.38;4.30;;;;;;;2.82;66.08;101771.69;5028815;28;20053;-79
2022/04/02 08:26:02;;;;;;;8.13;4.10;;;;;;;2.86;65.51;101772.47;5033110;28;20076;-79
2022/04/02 08:28:59;;;;;;;6.57;4.45;;;;;;;2.91;65.58;101783.59;5037140;28;20039;-80
2022/04/02 08:31:53;;;;;;;7.57;4.43;;;;;;;2.95;65.35;101782.59;5051745;28;20108;-80
2022/04/02 08:34:22;;;;;;;6.45;4.13;;;;;;;2.99;66.11;101784.22;5029872;28;20041;-79
2022/04/02 08:37:02;;;;;;;5.35;3.78;;;;;;;3.04;64.61;101791.88;5030204;28;20036;-79
2022/04/02 08:39:42;;;;;;;6.70;4.13;;;;;;;3.09;64.85;101779.63;5028482;28;20385;-79
2022/04/02 08:42:16;;;;;;;8.40;4.00;;;;;;;3.13;65.25;101791.63;5014839;28;20833;-79
2022/04/02 08:45:07;;;;;;;7.68;4.43;;;;;;;3.19;64.94;101791.44;5022569;28;20026;-79
2022/04/02 08:48:10;;;;;;;6.47;4.20;;;;;;;3.23;65.01;101793.09;5030045;28;20017;-80
2022/04/02 08:50:42;;;;;;;6.40;3.85;;;;;;;3.23;64.23;101807.84;5029899;28;20029;-79
2022/04/02 08:53:15;;;;;;;6.15;4.10;;;;;;;3.25;64.64;101800.84;5031049;28;20424;-79
2022/04/02 08:55:50;;;;;;;7.80;4.15;;;;;;;3.28;64.42;101805.97;5037380;28;20424;-79
2022/04/02 08:58:59;;;;;;;5.30;4.00;;;;;;;3.31;64.57;101809.34;5029630;28;20030;-78
2022/04/02 09:01:27;;;;;;;8.30;4.55;;;;;;;3.33;65.36;101810.13;5026590;28;20029;-77
2022/04/02 09:04:11;;;;;;;7.15;4.10;;;;;;;3.37;64.96;101810.91;5019846;28;20029;-77
2022/04/02 09:06:54;;;;;;;7.20;4.60;;;;;;;3.40;65.36;101818.63;5029309;28;20096;-78
2022/04/02 09:10:05;;;;;;;6.55;4.55;;;;;;;3.42;65.56;101815.06;5028903;28;20787;-77
2022/04/02 09:12:37;;;;;;;8.40;4.30;;;;;;;3.47;63.93;101825.34;4987376;28;20057;-78
2022/04/02 09:15:10;;;;;;;6.50;4.80;;;;;;;3.50;64.57;101830.47;5025009;28;20385;-77
2022/04/02 09:17:44;;;;;;;;;;;;;;;3.59;65.64;101837.13;5013576;28;20100;-77
2022/04/02 09:20:44;;;;;;;5.60;4.35;;;;;;;3.55;64.48;101831.16;5028987;28;19944;-78
2022/04/02 09:23:15;;;;;;;9.10;4.72;;;;;;;3.55;64.16;101830.31;5029451;28;20218;-78
2022/04/02 09:26:17;;;;;;;5.90;4.47;;;;;;;3.60;64.97;101839.72;5034863;28;20029;-78
2022/04/02 09:28:54;;;;;;;8.15;4.90;;;;;;;3.62;64.32;101837.94;5022508;28;20037;-78
2022/04/02 09:31:52;;;;;;;6.03;4.55;;;;;;;3.62;63.90;101840.53;5028532;28;20030;-78
2022/04/02 09:34:39;;;;;;;7.93;4.80;;;;;;;3.62;63.32;101848.34;5020090;28;20422;-78
2022/04/02 09:37:27;;;;;;;8.10;4.80;;;;;;;3.69;64.48;101843.81;5021805;28;20026;-78
2022/04/02 09:40:05;;;;;;;10.02;4.63;;;;;;;3.71;63.59;101847.22;5015938;28;20028;-78
2022/04/02 09:42:43;;;;;;;7.00;4.88;;;;;;;3.73;63.31;101845.41;5031485;28;20026;-78
2022/04/02 09:45:14;;;;;;;8.63;5.05;;;;;;;3.73;63.06;101842.81;5028730;28;20027;-78
2022/04/02 09:47:49;;;;;;;7.40;4.57;;;;;;;3.75;62.84;101844.47;5012279;28;20029;-78
2022/04/02 09:50:26;;;;;;;10.15;4.80;;;;;;;3.74;63.05;101845.38;5028660;28;20049;-78
2022/04/02 09:52:55;;;;;;;6.22;4.35;;;;;;;3.77;63.55;101850.47;5028080;28;20093;-78
2022/04/02 09:55:52;;;;;;;8.00;5.25;;;;;;;3.84;63.24;101845.94;5034073;28;20112;-78
2022/04/02 09:58:23;;;;;;;8.88;4.75;;;;;;;3.97;63.80;101854.22;5010269;28;20042;-78
2022/04/02 10:00:57;;;;;;;10.55;5.60;;;;;;;4.03;63.54;101854.91;5013102;28;20030;-78
2022/04/02 10:03:36;;;;;;;7.07;5.00;;;;;;;4.12;63.01;101848.56;5026923;28;20057;-78
2022/04/02 10:06:20;;;;;;;10.73;4.88;;;;;;;4.20;62.68;101846.56;5026487;28;20104;-78
2022/04/02 10:09:11;;;;;;;7.00;4.65;;;;;;;4.23;61.56;101846.47;5028327;28;20030;-78
2022/04/02 10:11:43;;;;;;;7.28;4.47;;;;;;;4.24;61.02;101842.97;5027938;28;20072;-80
2022/04/02 10:14:08;;;;;;;7.28;4.95;;;;;;;4.33;60.31;101842.66;5028076;28;20032;-79
2022/04/02 10:16:35;;;;;;;7.18;4.40;;;;;;;4.40;59.72;101838.97;5028883;28;20021;-78
2022/04/02 10:19:08;;;;;;;5.05;3.88;;;;;;;4.43;59.70;101831.97;5028212;28;20097;-78
2022/04/02 10:21:37;;;;;;;6.18;4.03;;;;;;;4.47;58.19;101834.41;5024323;28;20026;-78
2022/04/02 10:24:20;;;;;;;6.32;4.57;;;;;;;4.50;60.06;101843.88;5027239;28;20049;-78
2022/04/02 10:26:49;;;;;;;6.93;4.50;;;;;;;4.52;59.38;101829.06;5036193;28;20464;-78
2022/04/02 10:29:23;;;;;;;7.93;5.38;;;;;;;4.52;59.06;101837.72;5035261;28;20433;-78
2022/04/02 10:32:10;;;;;;;9.55;4.70;;;;;;;4.51;59.55;101835.16;5033172;28;20026;-78
2022/04/02 10:34:39;;;;;;;6.35;4.22;;;;;;;4.49;59.20;101832.63;5032619;28;20049;-78
2022/04/02 10:37:12;;;;;;;7.90;4.60;;;;;;;4.44;60.01;101829.31;5019241;28;20075;-78
2022/04/02 10:40:03;;;;;;;7.95;4.78;;;;;;;4.42;60.97;101835.47;5029778;28;20036;-78
2022/04/02 10:42:33;;;;;;;6.93;4.88;;;;;;;4.35;61.28;101840.84;5026747;28;20494;-78
2022/04/02 10:45:03;;;;;;;9.45;4.60;;;;;;;4.26;62.34;101842.91;5032866;28;20029;-78
2022/04/02 10:47:30;;;;;;;9.82;4.93;;;;;;;4.25;61.67;101839.44;5031756;28;21384;-78
2022/04/02 10:50:07;;;;;;;9.43;4.47;;;;;;;4.23;62.37;101849.06;5031484;28;20025;-78
2022/04/02 10:52:34;;;;;;;7.28;4.28;;;;;;;4.19;61.95;101833.59;5031215;28;20465;-78
2022/04/02 10:55:03;;;;;;;8.35;4.43;;;;;;;4.16;60.77;101842.34;5031145;28;20452;-78
2022/04/02 10:57:30;;;;;;;6.32;4.32;;;;;;;4.16;60.46;101838.91;5032444;28;20057;-78
2022/04/02 11:00:08;;;;;;;6.75;4.18;;;;;;;4.13;60.47;101841.59;5032847;28;20022;-78
2022/04/02 11:02:46;;;;;;;9.80;5.47;;;;;;;4.11;61.35;101846.84;5036493;28;20033;-78
2022/04/02 11:05:14;;;;;;;6.80;3.88;;;;;;;4.02;59.49;101845.41;5033643;28;20104;-78
2022/04/02 11:07:43;;;;;;;9.00;4.10;;;;;;;4.00;60.04;101841.09;5062702;28;20041;-78
2022/04/02 11:10:15;;;;;;;6.53;4.65;;;;;;;3.97;60.86;101843.81;5021496;28;20034;-78
2022/04/02 11:12:42;;;;;;;6.63;4.57;;;;;;;3.93;61.01;101844.81;5023873;28;20608;-78
2022/04/02 11:15:13;;;;;;;7.68;4.70;;;;;;;3.90;61.96;101844.91;5028861;28;20049;-78
2022/04/02 11:17:44;;;;;;;9.30;4.60;;;;;;;3.87;62.31;101842.38;5030569;28;20635;-78
2022/04/02 11:20:09;;;;;;;7.20;4.60;;;;;;;3.85;62.28;101838.97;5030297;28;20021;-78
2022/04/02 11:22:57;;;;;;;10.30;6.40;;;;;;;3.88;62.75;101834.53;5031234;28;20561;-78
2022/04/02 11:25:35;;;;;;;8.27;4.57;;;;;;;3.86;61.96;101831.13;5043411;28;20075;-77
2022/04/02 11:28:22;;;;;;;8.82;6.07;;;;;;;3.89;60.25;101832.78;5030202;28;20032;-79
2022/04/02 11:31:03;;;;;;;9.07;5.10;;;;;;;3.96;61.20;101829.94;5024372;28;20034;-78
2022/04/02 11:33:32;;;;;;;6.95;4.72;;;;;;;4.06;60.99;101833.97;5030844;28;20025;-78
2022/04/02 11:36:06;;;;;;;6.22;3.75;;;;;;;4.18;60.47;101837.94;5031512;28;20040;-78
2022/04/02 11:38:53;;;;;;;6.68;4.63;;;;;;;4.29;59.31;101835.00;5014498;28;20439;-79
2022/04/02 11:41:28;;;;;;;4.05;3.42;;;;;;;4.33;56.03;101831.38;5028860;28;20029;-79
2022/04/02 11:44:11;;;;;;;7.60;3.95;;;;;;;4.37;56.87;101827.78;5029296;28;20512;-79
2022/04/02 11:46:53;;;;;;;10.57;4.03;;;;;;;4.40;56.48;101835.50;5031446;28;20091;-78
2022/04/02 11:49:26;;;;;;;7.83;4.60;;;;;;;4.41;56.91;101834.63;5031241;28;20021;-78